Time;durP1;ratioP1;P1;durP2;ratioP2;P2;SDS_P1;SDS_P2;PMS_P1;PMS_P2;Temp;Humidity;BMP_temperature;BMP_pressure;BME280_temperature;BME280_humidity;BME280_pressure;Samples;Min_cycle;Max_cycle;Signal;HPM_P1;HPM_P2
2023/05/13 00:01:21;;;;;;;6.10;4.43;;;;;;;;;;5067185;28;20058;-75
2023/05/13 00:03:47;;;;;;;8.05;4.82;;;;;;;;;;5066809;28;20035;-76
2023/05/13 00:06:12;;;;;;;7.47;4.80;;;;;;;;;;5066662;28;20029;-75
2023/05/13 00:08:37;;;;;;;7.43;4.70;;;;;;;;;;5066790;28;20044;-76
2023/05/13 00:11:02;;;;;;;6.97;4.10;;;;;;;;;;5068882;28;20036;-76
2023/05/13 00:13:27;;;;;;;7.45;4.97;;;;;;;;;;5062846;28;20075;-75
2023/05/13 00:15:53;;;;;;;8.82;4.68;;;;;;;;;;5067443;28;20439;-75
2023/05/13 00:18:18;;;;;;;6.90;4.95;;;;;;;;;;5070156;28;20039;-75
2023/05/13 00:20:43;;;;;;;7.25;5.13;;;;;;;;;;5066409;28;20025;-75
2023/05/13 00:23:08;;;;;;;10.10;5.68;;;;;;;;;;5056491;28;20119;-76
2023/05/13 00:25:34;;;;;;;8.85;5.35;;;;;;;;;;5056134;28;20133;-75
2023/05/13 00:27:59;;;;;;;7.57;4.22;;;;;;;;;;5062895;28;20029;-75
2023/05/13 00:30:25;;;;;;;9.75;5.03;;;;;;;;;;5048249;28;20043;-75
2023/05/13 00:32:50;;;;;;;5.85;4.07;;;;;;;;;;5055792;28;20032;-75
2023/05/13 00:35:16;;;;;;;6.20;4.35;;;;;;;;;;5046785;28;20032;-75
2023/05/13 00:37:41;;;;;;;5.63;4.30;;;;;;;;;;5069156;28;20052;-75
2023/05/13 00:40:15;;;;;;;7.03;5.38;;;;;;;;;;5070357;28;20106;-75
2023/05/13 00:42:40;;;;;;;7.80;4.18;;;;;;;;;;5051500;28;20036;-75
2023/05/13 00:45:05;;;;;;;11.95;4.68;;;;;;;;;;5058018;28;20028;-75
2023/05/13 00:47:31;;;;;;;8.52;5.30;;;;;;;;;;5064602;28;20044;-75
2023/05/13 00:49:56;;;;;;;7.15;4.95;;;;;;;;;;5055576;28;20032;-75
2023/05/13 00:52:22;;;;;;;10.18;6.30;;;;;;;;;;5050535;28;20042;-75
2023/05/13 00:54:47;;;;;;;11.57;6.68;;;;;;;;;;5072983;28;20028;-75
2023/05/13 00:57:12;;;;;;;8.95;6.07;;;;;;;;;;5063291;28;20052;-75
2023/05/13 00:59:38;;;;;;;12.93;6.18;;;;;;;;;;5065460;28;20460;-75
2023/05/13 01:02:21;;;;;;;9.68;6.38;;;;;;;;;;5038746;28;20028;-75
2023/05/13 01:04:52;;;;;;;8.23;5.15;;;;;;;;;;5066545;28;20052;-75
2023/05/13 01:07:32;;;;;;;8.30;5.15;;;;;;;;;;5063655;28;20032;-75
2023/05/13 01:10:01;;;;;;;8.60;5.55;;;;;;;;;;5065372;28;20471;-75
2023/05/13 01:12:34;;;;;;;8.20;5.65;;;;;;;;;;5062434;28;20051;-75
2023/05/13 01:15:10;;;;;;;9.65;6.10;;;;;;;;;;5070481;28;20032;-75
2023/05/13 01:17:48;;;;;;;7.53;5.82;;;;;;;;;;5064904;28;20031;-74
2023/05/13 01:20:14;;;;;;;9.63;5.78;;;;;;;;;;5065212;28;20024;-75
2023/05/13 01:22:40;;;;;;;10.23;5.97;;;;;;;;;;5062947;28;20036;-75
2023/05/13 01:25:05;;;;;;;9.80;5.85;;;;;;;;;;5037095;28;20056;-75
2023/05/13 01:27:31;;;;;;;8.02;5.60;;;;;;;;;;5045500;28;20025;-75
2023/05/13 01:29:56;;;;;;;7.53;5.75;;;;;;;;;;5047802;28;20112;-75
2023/05/13 01:32:26;;;;;;;8.95;6.10;;;;;;;;;;5045054;28;20021;-75
2023/05/13 01:34:54;;;;;;;8.40;6.07;;;;;;;;;;5055386;28;20017;-75
2023/05/13 01:37:20;;;;;;;9.93;5.70;;;;;;;;;;5052189;28;20115;-75
2023/05/13 01:39:45;;;;;;;7.55;5.40;;;;;;;;;;5054653;28;20067;-75
2023/05/13 01:42:13;;;;;;;8.60;5.75;;;;;;;;;;5055004;28;20029;-75
2023/05/13 01:44:38;;;;;;;8.85;5.88;;;;;;;;;;5053110;28;20498;-75
2023/05/13 01:47:04;;;;;;;9.50;6.07;;;;;;;;;;5054087;28;20028;-75
2023/05/13 01:49:29;;;;;;;10.75;6.20;;;;;;;;;;5046745;28;20490;-74
2023/05/13 01:51:55;;;;;;;10.60;5.75;;;;;;;;;;5065515;28;20506;-75
2023/05/13 01:54:20;;;;;;;8.93;5.60;;;;;;;;;;5043187;28;20032;-77
2023/05/13 01:56:51;;;;;;;8.17;5.57;;;;;;;;;;5052058;28;20060;-76
2023/05/13 01:59:17;;;;;;;9.63;6.05;;;;;;;;;;5045713;28;20067;-76
2023/05/13 02:01:43;;;;;;;10.45;6.78;;;;;;;;;;5052149;28;20041;-76
2023/05/13 02:04:09;;;;;;;9.05;6.07;;;;;;;;;;5066737;28;20090;-76
2023/05/13 02:06:34;;;;;;;9.35;5.70;;;;;;;;;;5064404;28;20044;-77
2023/05/13 02:08:59;;;;;;;10.45;5.60;;;;;;;;;;5052262;28;20040;-76
2023/05/13 02:11:24;;;;;;;9.35;6.65;;;;;;;;;;5053233;28;20028;-76
2023/05/13 02:13:50;;;;;;;9.27;5.90;;;;;;;;;;5044024;28;20083;-77
2023/05/13 02:16:16;;;;;;;8.85;5.88;;;;;;;;;;5064407;28;20103;-76
2023/05/13 02:18:41;;;;;;;7.68;5.38;;;;;;;;;;5044645;28;20056;-76
2023/05/13 02:21:06;;;;;;;11.05;6.75;;;;;;;;;;5046845;28;20549;-76
2023/05/13 02:23:32;;;;;;;9.15;5.40;;;;;;;;;;5051583;28;20111;-76
2023/05/13 02:25:57;;;;;;;7.90;6.15;;;;;;;;;;5067440;28;20537;-76
2023/05/13 02:28:22;;;;;;;9.52;6.22;;;;;;;;;;5066067;28;20048;-77
2023/05/13 02:30:47;;;;;;;8.57;6.38;;;;;;;;;;5061050;28;20480;-76
2023/05/13 02:33:13;;;;;;;10.88;6.20;;;;;;;;;;5051845;28;20104;-77
2023/05/13 02:35:38;;;;;;;8.48;5.95;;;;;;;;;;5051724;28;20048;-77
2023/05/13 02:38:03;;;;;;;9.55;6.35;;;;;;;;;;5044345;28;20512;-76
2023/05/13 02:40:30;;;;;;;11.23;6.20;;;;;;;;;;5051401;28;20550;-76
2023/05/13 02:42:56;;;;;;;12.40;6.75;;;;;;;;;;5053187;28;20029;-76
2023/05/13 02:45:31;;;;;;;10.90;6.10;;;;;;;;;;5055372;28;20154;-76
2023/05/13 02:47:57;;;;;;;8.05;5.85;;;;;;;;;;5051680;28;20500;-77
2023/05/13 02:50:22;;;;;;;7.90;5.43;;;;;;;;;;5052221;28;20483;-76
2023/05/13 02:52:47;;;;;;;8.32;6.50;;;;;;;;;;5050582;28;20025;-76
2023/05/13 02:55:13;;;;;;;7.53;5.90;;;;;;;;;;5045637;28;20103;-76
2023/05/13 02:57:38;;;;;;;8.57;6.40;;;;;;;;;;5041981;28;20124;-77
2023/05/13 03:00:06;;;;;;;10.15;6.63;;;;;;;;;;5053361;28;20487;-76
2023/05/13 03:02:32;;;;;;;8.45;6.18;;;;;;;;;;5044896;28;20036;-76
2023/05/13 03:04:57;;;;;;;9.27;6.40;;;;;;;;;;5059181;28;20483;-76
2023/05/13 03:07:23;;;;;;;9.95;6.88;;;;;;;;;;5053008;28;20031;-76
2023/05/13 03:09:48;;;;;;;13.43;6.97;;;;;;;;;;5063522;28;20028;-77
2023/05/13 03:12:13;;;;;;;10.15;7.15;;;;;;;;;;5044351;28;20040;-76
2023/05/13 03:14:39;;;;;;;9.55;6.80;;;;;;;;;;5060557;28;20091;-77
2023/05/13 03:17:04;;;;;;;9.90;6.90;;;;;;;;;;5051515;28;20024;-79
2023/05/13 03:19:30;;;;;;;9.15;6.75;;;;;;;;;;5053334;28;20029;-76
2023/05/13 03:21:56;;;;;;;7.90;6.30;;;;;;;;;;5051528;28;20380;-76
2023/05/13 03:24:22;;;;;;;10.98;6.97;;;;;;;;;;5051424;28;20039;-76
2023/05/13 03:26:48;;;;;;;9.80;7.50;;;;;;;;;;5046973;28;20020;-77
2023/05/13 03:29:13;;;;;;;10.43;6.80;;;;;;;;;;5063144;28;20048;-79
2023/05/13 03:31:38;;;;;;;8.82;7.05;;;;;;;;;;5028990;28;20534;-77
2023/05/13 03:34:04;;;;;;;8.40;6.70;;;;;;;;;;5054611;28;20093;-79
2023/05/13 03:36:31;;;;;;;11.50;7.75;;;;;;;;;;5056764;28;20020;-79
2023/05/13 03:38:56;;;;;;;9.80;7.57;;;;;;;;;;5053835;28;20020;-76
2023/05/13 03:41:22;;;;;;;8.85;7.03;;;;;;;;;;5045155;28;20025;-76
2023/05/13 03:43:47;;;;;;;9.38;6.85;;;;;;;;;;5042366;28;20028;-76
2023/05/13 03:46:14;;;;;;;10.32;7.25;;;;;;;;;;5055325;28;20039;-79
2023/05/13 03:48:39;;;;;;;7.78;6.35;;;;;;;;;;5047554;28;20028;-77
2023/05/13 03:51:05;;;;;;;9.90;6.47;;;;;;;;;;5044836;28;20053;-76
2023/05/13 03:53:30;;;;;;;10.00;6.72;;;;;;;;;;5049768;28;20487;-76
2023/05/13 03:55:56;;;;;;;7.90;5.90;;;;;;;;;;5052445;28;20027;-77
2023/05/13 03:58:21;;;;;;;9.40;6.10;;;;;;;;;;5043432;28;20038;-77
2023/05/13 04:00:47;;;;;;;8.75;6.25;;;;;;;;;;5028681;28;20376;-76
2023/05/13 04:03:13;;;;;;;10.00;7.28;;;;;;;;;;5047923;28;20574;-77
2023/05/13 04:05:38;;;;;;;8.65;6.28;;;;;;;;;;5066857;28;20028;-77
2023/05/13 04:08:03;;;;;;;9.05;7.22;;;;;;;;;;5052102;28;20036;-76
2023/05/13 04:10:28;;;;;;;10.10;7.28;;;;;;;;;;5046566;28;20031;-77
2023/05/13 04:12:55;;;;;;;10.27;7.15;;;;;;;;;;5045110;28;20081;-77
2023/05/13 04:15:21;;;;;;;12.65;7.22;;;;;;;;;;5066776;28;20027;-77
2023/05/13 04:17:47;;;;;;;10.85;7.25;;;;;;;;;;5061351;28;20052;-77
2023/05/13 04:20:12;;;;;;;11.38;7.88;;;;;;;;;;5066489;28;20418;-77
2023/05/13 04:22:37;;;;;;;9.57;7.40;;;;;;;;;;5067459;28;20055;-77
2023/05/13 04:25:03;;;;;;;11.32;6.75;;;;;;;;;;5063462;28;20509;-77
2023/05/13 04:27:28;;;;;;;8.85;6.60;;;;;;;;;;5033184;28;20033;-76
2023/05/13 04:30:00;;;;;;;10.73;7.03;;;;;;;;;;5044339;28;20051;-77
2023/05/13 04:32:27;;;;;;;9.30;6.70;;;;;;;;;;5051063;28;20029;-77
2023/05/13 04:34:53;;;;;;;9.75;6.28;;;;;;;;;;5060447;28;20155;-77
2023/05/13 04:37:19;;;;;;;8.90;6.97;;;;;;;;;;5050215;28;20029;-77
2023/05/13 04:39:46;;;;;;;9.82;6.93;;;;;;;;;;5051710;28;20115;-77
2023/05/13 04:42:12;;;;;;;9.18;6.82;;;;;;;;;;5048961;28;20155;-77
2023/05/13 04:44:37;;;;;;;9.77;6.43;;;;;;;;;;5065104;28;20024;-76
2023/05/13 04:47:03;;;;;;;9.25;6.80;;;;;;;;;;5055950;28;20166;-77
2023/05/13 04:49:28;;;;;;;8.65;6.90;;;;;;;;;;5045182;28;20435;-77
2023/05/13 04:51:53;;;;;;;8.98;6.75;;;;;;;;;;5067996;28;20364;-77
2023/05/13 04:54:19;;;;;;;10.60;6.55;;;;;;;;;;5049458;28;20121;-77
2023/05/13 04:56:44;;;;;;;8.70;6.63;;;;;;;;;;5047051;28;20719;-77
2023/05/13 04:59:09;;;;;;;9.07;6.35;;;;;;;;;;5052644;28;20032;-77
2023/05/13 05:01:35;;;;;;;8.80;6.47;;;;;;;;;;5055736;28;20035;-77
2023/05/13 05:04:01;;;;;;;9.10;6.47;;;;;;;;;;5062559;28;20094;-77
2023/05/13 05:06:26;;;;;;;9.50;6.97;;;;;;;;;;5047205;28;20020;-77
2023/05/13 05:08:51;;;;;;;9.57;7.53;;;;;;;;;;5052087;28;20043;-77
2023/05/13 05:11:17;;;;;;;11.98;6.90;;;;;;;;;;5051133;28;20518;-77
2023/05/13 05:13:42;;;;;;;8.77;6.30;;;;;;;;;;5044193;28;20470;-77
2023/05/13 05:16:08;;;;;;;9.25;6.45;;;;;;;;;;5041840;28;20036;-77
2023/05/13 05:18:35;;;;;;;8.40;6.43;;;;;;;;;;5064989;28;20466;-77
2023/05/13 05:21:01;;;;;;;10.30;6.00;;;;;;;;;;5060608;28;20078;-77
2023/05/13 05:23:27;;;;;;;8.77;6.50;;;;;;;;;;5051437;28;20398;-77
2023/05/13 05:25:52;;;;;;;11.63;6.90;;;;;;;;;;5055086;28;20054;-77
2023/05/13 05:28:18;;;;;;;9.27;6.93;;;;;;;;;;5052503;28;20040;-76
2023/05/13 05:30:44;;;;;;;10.48;7.65;;;;;;;;;;5047194;28;20024;-77
2023/05/13 05:33:23;;;;;;;9.68;6.75;;;;;;;;;;5047483;28;20056;-77
2023/05/13 05:35:49;;;;;;;8.60;6.57;;;;;;;;;;5046215;28;20032;-77
2023/05/13 05:38:16;;;;;;;9.50;6.15;;;;;;;;;;5050582;28;20027;-77
2023/05/13 05:40:44;;;;;;;9.80;6.95;;;;;;;;;;5052384;28;20079;-77
2023/05/13 05:43:09;;;;;;;9.63;6.38;;;;;;;;;;5046648;28;20029;-77
2023/05/13 05:45:35;;;;;;;9.63;7.47;;;;;;;;;;5054385;28;20530;-77
2023/05/13 05:48:02;;;;;;;8.95;6.90;;;;;;;;;;5057876;28;20059;-76
2023/05/13 05:50:28;;;;;;;9.70;5.97;;;;;;;;;;5063768;28;20068;-77
2023/05/13 05:52:53;;;;;;;8.70;6.15;;;;;;;;;;5065867;28;20020;-76
2023/05/13 05:55:19;;;;;;;8.23;6.18;;;;;;;;;;5056431;28;20052;-77
2023/05/13 05:57:44;;;;;;;10.50;7.05;;;;;;;;;;5067073;28;20491;-77
2023/05/13 06:00:10;;;;;;;8.77;6.60;;;;;;;;;;5054286;28;20107;-77
2023/05/13 06:02:40;;;;;;;8.15;6.65;;;;;;;;;;5064401;28;20059;-77
2023/05/13 06:05:06;;;;;;;9.27;6.40;;;;;;;;;;5053321;28;20024;-77
2023/05/13 06:07:31;;;;;;;8.77;6.70;;;;;;;;;;5053026;28;20029;-78
2023/05/13 06:09:56;;;;;;;7.05;5.93;;;;;;;;;;5053461;28;20056;-77
2023/05/13 06:12:22;;;;;;;9.73;7.05;;;;;;;;;;5054161;28;20059;-77
2023/05/13 06:14:47;;;;;;;14.55;7.60;;;;;;;;;;5064694;28;20522;-77
2023/05/13 06:17:14;;;;;;;9.25;7.72;;;;;;;;;;5054575;28;20391;-77
2023/05/13 06:19:41;;;;;;;11.25;6.88;;;;;;;;;;5043474;28;20029;-77
2023/05/13 06:22:07;;;;;;;10.05;6.70;;;;;;;;;;5045187;28;20028;-77
2023/05/13 06:24:34;;;;;;;12.57;6.82;;;;;;;;;;5066062;28;20029;-77
2023/05/13 06:27:00;;;;;;;9.77;6.75;;;;;;;;;;5070267;28;20055;-77
2023/05/13 06:29:25;;;;;;;7.57;5.95;;;;;;;;;;5052326;28;20042;-76
2023/05/13 06:31:51;;;;;;;10.90;6.55;;;;;;;;;;5065468;28;20388;-77
2023/05/13 06:34:16;;;;;;;8.27;6.60;;;;;;;;;;5054420;28;20031;-77
2023/05/13 06:36:42;;;;;;;6.95;5.65;;;;;;;;;;5061297;28;20039;-77
2023/05/13 06:39:09;;;;;;;7.00;5.47;;;;;;;;;;5050551;28;20021;-77
2023/05/13 06:41:35;;;;;;;9.25;6.15;;;;;;;;;;5051304;28;20106;-77
2023/05/13 06:44:06;;;;;;;9.67;6.97;;;;;;;;;;5049386;28;20074;-77
2023/05/13 06:46:36;;;;;;;10.50;6.45;;;;;;;;;;5054246;28;20025;-77
2023/05/13 06:49:01;;;;;;;7.55;5.15;;;;;;;;;;5053175;28;20473;-77
2023/05/13 06:51:27;;;;;;;7.75;5.47;;;;;;;;;;5052918;28;20020;-77
2023/05/13 06:53:53;;;;;;;7.43;5.07;;;;;;;;;;5064663;28;20027;-77
2023/05/13 06:56:18;;;;;;;8.93;4.95;;;;;;;;;;5066907;28;20083;-77
2023/05/13 06:58:43;;;;;;;6.85;4.75;;;;;;;;;;5033212;28;20032;-77
2023/05/13 07:01:09;;;;;;;9.43;5.03;;;;;;;;;;5062279;28;20372;-77
2023/05/13 07:03:35;;;;;;;8.90;6.88;;;;;;;;;;5037569;28;20033;-77
2023/05/13 07:06:00;;;;;;;8.90;7.53;;;;;;;;;;5068171;28;20091;-77
2023/05/13 07:08:25;;;;;;;12.18;6.63;;;;;;;;;;5062600;28;20040;-77
2023/05/13 07:10:50;;;;;;;8.07;6.40;;;;;;;;;;5063515;28;20652;-77
2023/05/13 07:13:18;;;;;;;11.05;6.60;;;;;;;;;;5062378;28;20039;-77
2023/05/13 07:15:44;;;;;;;8.73;6.25;;;;;;;;;;5052137;28;20091;-76
2023/05/13 07:18:09;;;;;;;8.13;6.28;;;;;;;;;;5068531;28;20179;-77
2023/05/13 07:20:35;;;;;;;8.82;7.32;;;;;;;;;;5066660;28;20120;-77
2023/05/13 07:23:01;;;;;;;9.27;5.35;;;;;;;;;;5065866;28;20058;-77
2023/05/13 07:25:26;;;;;;;14.75;5.63;;;;;;;;;;5064235;28;20033;-77
2023/05/13 07:27:51;;;;;;;26.13;7.18;;;;;;;;;;5065097;28;20024;-77
2023/05/13 07:30:17;;;;;;;99.30;13.65;;;;;;;;;;5050108;28;20055;-77
2023/05/13 07:32:42;;;;;;;16.40;6.80;;;;;;;;;;5065416;28;20025;-77
2023/05/13 07:35:08;;;;;;;22.27;8.27;;;;;;;;;;5064787;28;20469;-77
2023/05/13 07:37:33;;;;;;;11.77;5.72;;;;;;;;;;5055639;28;20024;-77
2023/05/13 07:39:58;;;;;;;6.55;3.90;;;;;;;;;;5062524;28;20490;-77
2023/05/13 07:42:23;;;;;;;6.05;4.28;;;;;;;;;;5069483;28;20039;-77
2023/05/13 07:44:49;;;;;;;6.85;4.40;;;;;;;;;;5053431;28;20068;-77
2023/05/13 07:47:14;;;;;;;6.65;4.28;;;;;;;;;;5073835;28;20033;-77
2023/05/13 07:49:39;;;;;;;6.05;4.18;;;;;;;;;;5061937;28;20025;-77
2023/05/13 07:52:04;;;;;;;8.02;5.20;;;;;;;;;;5056692;28;20029;-77
2023/05/13 07:56:58;;;;;;;7.35;5.65;;;;;;;;;;5022835;28;20038;-77
2023/05/13 07:59:24;;;;;;;6.63;4.57;;;;;;;;;;5020849;28;20052;-76
2023/05/13 08:01:49;;;;;;;6.95;3.88;;;;;;;;;;5025158;28;20072;-77
2023/05/13 08:04:14;;;;;;;7.55;4.68;;;;;;;;;;5024449;28;20029;-77
2023/05/13 08:06:40;;;;;;;12.43;5.15;;;;;;;;;;5021369;28;20099;-76
2023/05/13 08:09:05;;;;;;;6.13;4.60;;;;;;;;;;5024847;28;20088;-76
2023/05/13 08:11:30;;;;;;;6.68;4.60;;;;;;;;;;5027163;28;20091;-77
2023/05/13 08:13:56;;;;;;;5.45;4.28;;;;;;;;;;5022243;28;20033;-77
2023/05/13 08:16:21;;;;;;;6.93;4.10;;;;;;;;;;5025254;28;20018;-76
2023/05/13 08:18:46;;;;;;;7.05;4.30;;;;;;;;;;5014792;28;20033;-76
2023/05/13 08:21:11;;;;;;;16.23;5.88;;;;;;;;;;5031821;28;20495;-77
2023/05/13 08:23:37;;;;;;;6.28;3.22;;;;;;;;;;5028367;28;20052;-77
2023/05/13 08:26:02;;;;;;;5.30;3.28;;;;;;;;;;5025857;28;20030;-76
2023/05/13 08:28:28;;;;;;;28.75;5.88;;;;;;;;;;5029107;28;20545;-76
2023/05/13 08:30:53;;;;;;;8.15;3.60;;;;;;;;;;5025646;28;20128;-77
2023/05/13 08:33:19;;;;;;;14.13;4.65;;;;;;;;;;5027853;28;20032;-76
2023/05/13 08:35:45;;;;;;;11.15;4.88;;;;;;;;;;5026434;28;20026;-77
2023/05/13 08:38:10;;;;;;;11.98;4.88;;;;;;;;;;5030900;28;20085;-76
2023/05/13 08:40:35;;;;;;;10.73;4.70;;;;;;;;;;5028947;28;20443;-76
2023/05/13 08:43:02;;;;;;;17.02;4.85;;;;;;;;;;5030360;28;20113;-77
2023/05/13 08:45:28;;;;;;;6.00;3.35;;;;;;;;;;5030052;28;20040;-78
2023/05/13 08:47:55;;;;;;;5.35;3.35;;;;;;;;;;5026552;28;20037;-77
2023/05/13 08:50:21;;;;;;;6.35;4.28;;;;;;;;;;5027081;28;20088;-77
2023/05/13 08:52:46;;;;;;;5.07;3.47;;;;;;;;;;5024856;28;20029;-76
2023/05/13 08:55:11;;;;;;;6.40;3.00;;;;;;;;;;5027038;28;20469;-78
2023/05/13 08:57:37;;;;;;;7.22;3.90;;;;;;;;;;5026077;28;20424;-77
2023/05/13 09:00:03;;;;;;;5.38;3.40;;;;;;;;;;5027113;28;20048;-78
2023/05/13 09:02:29;;;;;;;8.48;3.58;;;;;;;;;;5029612;28;20385;-77
2023/05/13 09:04:55;;;;;;;7.30;3.80;;;;;;;;;;5018106;28;20029;-77
2023/05/13 09:07:20;;;;;;;78.68;10.10;;;;;;;;;;5015800;28;20037;-77
2023/05/13 09:09:45;;;;;;;10.40;4.10;;;;;;;;;;5027222;28;20041;-77
2023/05/13 09:12:10;;;;;;;7.18;3.70;;;;;;;;;;5028097;28;20089;-77
2023/05/13 09:14:36;;;;;;;5.13;3.00;;;;;;;;;;5028536;28;20060;-77
2023/05/13 09:17:02;;;;;;;5.43;3.35;;;;;;;;;;5027328;28;20033;-77
2023/05/13 09:19:27;;;;;;;76.40;9.48;;;;;;;;;;5026165;28;20033;-77
2023/05/13 09:21:53;;;;;;;8.98;3.45;;;;;;;;;;5026480;28;20045;-76
2023/05/13 09:24:20;;;;;;;5.18;3.10;;;;;;;;;;5028337;28;20034;-77
2023/05/13 09:26:45;;;;;;;5.90;3.47;;;;;;;;;;5024367;28;20045;-77
2023/05/13 09:29:24;;;;;;;8.15;3.47;;;;;;;;;;5026664;28;20026;-78
2023/05/13 09:31:50;;;;;;;8.07;3.40;;;;;;;;;;5028175;28;20041;-78
2023/05/13 09:34:25;;;;;;;7.15;3.28;;;;;;;;;;5027136;28;20017;-77
2023/05/13 09:36:57;;;;;;;7.65;3.13;;;;;;;;;;5027251;28;20022;-77
2023/05/13 09:39:22;;;;;;;5.97;3.10;;;;;;;;;;5024478;28;20034;-78
2023/05/13 09:41:47;;;;;;;5.88;3.67;;;;;;;;;;5030334;28;20025;-77
2023/05/13 09:44:12;;;;;;;5.63;3.17;;;;;;;;;;5016537;28;20440;-77
2023/05/13 09:46:38;;;;;;;6.03;3.03;;;;;;;;;;5030842;28;20272;-77
2023/05/13 09:49:03;;;;;;;6.55;2.90;;;;;;;;;;5024335;28;20133;-77
2023/05/13 09:51:29;;;;;;;5.20;3.33;;;;;;;;;;5027104;28;20093;-78
2023/05/13 09:54:01;;;;;;;8.75;3.22;;;;;;;;;;5024712;28;20037;-77
2023/05/13 09:56:29;;;;;;;5.60;3.05;;;;;;;;;;5027465;28;20116;-77
2023/05/13 09:58:54;;;;;;;5.65;3.33;;;;;;;;;;5014999;28;20057;-77
2023/05/13 10:01:21;;;;;;;4.82;3.20;;;;;;;;;;5027471;28;20042;-76
2023/05/13 10:03:46;;;;;;;5.60;3.60;;;;;;;;;;5024728;28;20055;-78
2023/05/13 10:06:12;;;;;;;5.18;2.80;;;;;;;;;;5026376;28;20033;-77
2023/05/13 10:08:37;;;;;;;5.90;2.90;;;;;;;;;;5027241;28;20025;-77
2023/05/13 10:11:03;;;;;;;6.40;3.30;;;;;;;;;;5025826;28;20084;-76
2023/05/13 10:13:30;;;;;;;6.30;3.00;;;;;;;;;;5027458;28;20465;-77
2023/05/13 10:15:56;;;;;;;7.38;3.28;;;;;;;;;;5007086;28;20546;-77
2023/05/13 10:18:22;;;;;;;9.38;3.20;;;;;;;;;;5026847;28;20069;-77
2023/05/13 10:20:51;;;;;;;6.18;3.33;;;;;;;;;;5026990;28;20037;-77
2023/05/13 10:23:17;;;;;;;6.45;2.50;;;;;;;;;;5028442;28;20041;-77
2023/05/13 10:25:43;;;;;;;4.35;2.47;;;;;;;;;;5026392;28;20036;-78
2023/05/13 10:28:08;;;;;;;7.05;2.97;;;;;;;;;;5025775;28;20538;-77
2023/05/13 10:30:34;;;;;;;7.28;3.05;;;;;;;;;;5025722;28;20025;-77
2023/05/13 10:33:00;;;;;;;5.28;3.10;;;;;;;;;;5024486;28;20022;-77
2023/05/13 10:35:27;;;;;;;6.13;2.72;;;;;;;;;;5038104;28;20025;-77
2023/05/13 10:37:52;;;;;;;5.88;2.67;;;;;;;;;;5029267;28;20034;-78
2023/05/13 10:40:17;;;;;;;5.60;2.50;;;;;;;;;;5029351;28;20044;-78
2023/05/13 10:42:48;;;;;;;7.53;2.80;;;;;;;;;;5026759;28;20300;-78
2023/05/13 10:45:15;;;;;;;6.05;2.88;;;;;;;;;;5025312;28;20315;-78
2023/05/13 10:47:40;;;;;;;5.45;2.63;;;;;;;;;;5006214;28;20495;-78
2023/05/13 10:50:06;;;;;;;6.07;2.78;;;;;;;;;;5024971;28;20034;-77
2023/05/13 10:52:47;;;;;;;9.38;2.78;;;;;;;;;;5028367;28;20967;-77
2023/05/13 10:55:17;;;;;;;4.63;2.72;;;;;;;;;;5023049;28;20122;-78
2023/05/13 10:57:59;;;;;;;6.07;2.70;;;;;;;;;;5024507;28;20099;-77
2023/05/13 11:00:29;;;;;;;6.72;3.28;;;;;;;;;;5021080;28;20030;-77
2023/05/13 11:02:54;;;;;;;7.28;3.05;;;;;;;;;;5027702;28;20034;-77
2023/05/13 11:05:20;;;;;;;5.68;2.80;;;;;;;;;;5022730;28;20590;-77
2023/05/13 11:07:53;;;;;;;6.78;3.13;;;;;;;;;;5024853;28;20455;-77
2023/05/13 11:10:24;;;;;;;5.13;2.58;;;;;;;;;;5024447;28;20038;-78
2023/05/13 11:13:19;;;;;;;7.90;2.83;;;;;;;;;;5025620;28;20037;-77
2023/05/13 11:15:47;;;;;;;5.50;2.65;;;;;;;;;;5026462;28;20049;-78
2023/05/13 11:18:13;;;;;;;7.45;2.75;;;;;;;;;;5032722;28;20144;-78
2023/05/13 11:20:39;;;;;;;7.20;3.20;;;;;;;;;;5031647;28;20043;-78
2023/05/13 11:23:04;;;;;;;5.47;2.80;;;;;;;;;;5031518;28;20025;-77
2023/05/13 11:25:30;;;;;;;4.20;2.78;;;;;;;;;;5018336;28;20312;-77
2023/05/13 11:27:55;;;;;;;6.50;2.83;;;;;;;;;;5032872;28;20026;-77
2023/05/13 11:30:20;;;;;;;6.03;2.75;;;;;;;;;;5030378;28;20045;-78
2023/05/13 11:32:51;;;;;;;5.70;3.10;;;;;;;;;;5029291;28;20025;-77
2023/05/13 11:35:23;;;;;;;4.47;2.67;;;;;;;;;;5031185;28;20052;-78
2023/05/13 11:37:48;;;;;;;7.28;2.88;;;;;;;;;;5030464;28;20038;-76
2023/05/13 11:40:27;;;;;;;4.03;2.55;;;;;;;;;;5030644;28;20152;-78
2023/05/13 11:42:52;;;;;;;4.47;2.28;;;;;;;;;;5025936;28;20103;-78
2023/05/13 11:45:18;;;;;;;5.05;3.03;;;;;;;;;;5028430;28;20034;-78
2023/05/13 11:47:43;;;;;;;4.82;3.22;;;;;;;;;;5029422;28;20044;-77
2023/05/13 11:50:34;;;;;;;6.25;2.63;;;;;;;;;;5031345;28;20033;-78
2023/05/13 11:53:00;;;;;;;5.53;2.70;;;;;;;;;;5013662;28;20033;-78
2023/05/13 11:55:26;;;;;;;4.47;2.42;;;;;;;;;;5031209;28;20044;-78
2023/05/13 11:57:51;;;;;;;5.25;2.55;;;;;;;;;;5013484;28;20117;-78
2023/05/13 12:00:17;;;;;;;4.35;2.55;;;;;;;;;;5029012;28;20099;-78
2023/05/13 12:02:44;;;;;;;5.15;2.60;;;;;;;;;;5021162;28;20481;-78
2023/05/13 12:05:10;;;;;;;4.32;2.80;;;;;;;;;;5028233;28;20021;-78
2023/05/13 12:07:36;;;;;;;4.13;2.80;;;;;;;;;;5016303;28;20515;-78
2023/05/13 12:10:02;;;;;;;3.97;2.67;;;;;;;;;;5031439;28;20480;-78
2023/05/13 12:12:29;;;;;;;6.90;2.80;;;;;;;;;;5028894;28;20523;-78
2023/05/13 12:14:55;;;;;;;5.45;3.20;;;;;;;;;;5027970;28;20124;-78
2023/05/13 12:17:20;;;;;;;4.75;2.80;;;;;;;;;;5013364;28;20042;-78
2023/05/13 12:20:04;;;;;;;4.07;2.67;;;;;;;;;;5023621;28;20038;-78
2023/05/13 12:22:29;;;;;;;6.15;2.72;;;;;;;;;;5025016;28;20041;-78
2023/05/13 12:24:54;;;;;;;12.80;3.25;;;;;;;;;;5025228;28;20025;-78
2023/05/13 12:27:20;;;;;;;6.93;2.75;;;;;;;;;;5021571;28;20050;-77
2023/05/13 12:29:45;;;;;;;5.38;2.25;;;;;;;;;;5024569;28;20083;-78
2023/05/13 12:32:10;;;;;;;5.30;2.17;;;;;;;;;;5026748;28;20030;-78
2023/05/13 12:34:37;;;;;;;3.28;2.00;;;;;;;;;;5017177;28;20092;-77
2023/05/13 12:37:12;;;;;;;4.38;2.20;;;;;;;;;;5022166;28;20042;-78
2023/05/13 12:39:38;;;;;;;5.68;1.95;;;;;;;;;;5022928;28;20068;-77
2023/05/13 12:42:03;;;;;;;4.47;2.08;;;;;;;;;;5025670;28;20021;-78
2023/05/13 12:44:29;;;;;;;8.88;2.08;;;;;;;;;;5023595;28;20022;-78
2023/05/13 12:47:00;;;;;;;9.50;3.00;;;;;;;;;;5024804;28;20083;-77
2023/05/13 12:49:25;;;;;;;6.88;2.10;;;;;;;;;;5024455;28;20152;-77
2023/05/13 12:51:50;;;;;;;5.85;2.20;;;;;;;;;;5025498;28;20083;-77
2023/05/13 12:54:16;;;;;;;4.85;1.88;;;;;;;;;;5021396;28;20030;-78
2023/05/13 12:56:41;;;;;;;5.05;2.13;;;;;;;;;;5015064;28;20029;-78
2023/05/13 12:59:06;;;;;;;7.22;2.30;;;;;;;;;;5003822;28;20073;-78
2023/05/13 13:01:32;;;;;;;4.60;2.30;;;;;;;;;;5027019;28;20064;-77
2023/05/13 13:03:57;;;;;;;7.25;2.40;;;;;;;;;;5024364;28;20036;-78
2023/05/13 13:06:22;;;;;;;3.00;2.13;;;;;;;;;;5024495;28;20049;-77
2023/05/13 13:08:47;;;;;;;7.18;1.90;;;;;;;;;;5027795;28;20622;-77
2023/05/13 13:11:17;;;;;;;4.28;2.13;;;;;;;;;;5028016;28;20547;-76
2023/05/13 13:13:43;;;;;;;3.65;2.00;;;;;;;;;;5027440;28;20052;-77
2023/05/13 13:16:08;;;;;;;4.60;2.30;;;;;;;;;;5026107;28;20148;-77
2023/05/13 13:18:33;;;;;;;4.77;2.87;;;;;;;;;;5027277;28;20079;-77
2023/05/13 13:20:59;;;;;;;3.55;2.05;;;;;;;;;;5025431;28;20613;-77
2023/05/13 13:23:24;;;;;;;4.18;2.50;;;;;;;;;;5026772;28;20033;-78
2023/05/13 13:25:49;;;;;;;6.90;2.35;;;;;;;;;;5026957;28;20029;-77
2023/05/13 13:28:15;;;;;;;4.43;2.63;;;;;;;;;;5023421;28;20547;-77
2023/05/13 13:30:45;;;;;;;3.85;2.40;;;;;;;;;;5026719;28;20033;-78
2023/05/13 13:33:10;;;;;;;5.55;2.15;;;;;;;;;;5029818;28;20411;-78
2023/05/13 13:35:35;;;;;;;5.47;2.10;;;;;;;;;;5023891;28;20041;-78
2023/05/13 13:38:01;;;;;;;3.23;1.97;;;;;;;;;;5025571;28;20118;-77
2023/05/13 13:40:26;;;;;;;3.10;1.98;;;;;;;;;;5025133;28;20344;-77
2023/05/13 13:42:51;;;;;;;4.23;2.47;;;;;;;;;;5036448;28;20025;-78
2023/05/13 13:45:16;;;;;;;3.63;2.10;;;;;;;;;;5036091;28;20272;-78
2023/05/13 13:47:41;;;;;;;2.58;1.92;;;;;;;;;;5024328;28;20068;-78
2023/05/13 13:50:07;;;;;;;3.67;2.20;;;;;;;;;;5025578;28;20040;-77
2023/05/13 13:52:32;;;;;;;3.55;2.10;;;;;;;;;;5027673;28;20114;-77
2023/05/13 13:57:31;;;;;;;2.80;1.77;;;;;;;;;;5065155;28;20313;-78
2023/05/13 13:59:56;;;;;;;3.80;1.97;;;;;;;;;;5046668;28;20037;-78
2023/05/13 14:02:21;;;;;;;5.43;2.20;;;;;;;;;;5049446;28;20024;-78
2023/05/13 14:04:47;;;;;;;4.03;1.90;;;;;;;;;;5067578;28;20055;-79
2023/05/13 14:07:12;;;;;;;4.75;1.90;;;;;;;;;;5071628;28;20259;-78
2023/05/13 14:09:37;;;;;;;2.80;1.95;;;;;;;;;;5088359;28;20474;-79
2023/05/13 14:12:03;;;;;;;5.57;2.13;;;;;;;;;;5072980;28;20055;-79
2023/05/13 14:14:28;;;;;;;4.45;2.15;;;;;;;;;;5087830;28;20029;-78
2023/05/13 14:16:53;;;;;;;3.42;1.25;;;;;;;;;;5089852;28;20051;-78
2023/05/13 14:19:18;;;;;;;3.70;1.50;;;;;;;;;;5082061;28;20042;-78
2023/05/13 14:21:44;;;;;;;3.60;1.50;;;;;;;;;;5048180;28;20025;-79
2023/05/13 14:24:10;;;;;;;2.47;1.45;;;;;;;;;;5091021;28;20035;-79
2023/05/13 14:26:36;;;;;;;4.75;1.75;;;;;;;;;;5087975;28;20676;-78
2023/05/13 14:29:01;;;;;;;3.15;1.70;;;;;;;;;;5092189;28;20031;-78
2023/05/13 14:31:26;;;;;;;3.07;1.60;;;;;;;;;;5074915;28;20083;-78
2023/05/13 14:33:52;;;;;;;2.72;1.67;;;;;;;;;;5072556;28;20274;-79
2023/05/13 14:36:19;;;;;;;3.55;1.27;;;;;;;;;;5087553;28;20044;-78
2023/05/13 14:38:44;;;;;;;2.58;1.55;;;;;;;;;;5074967;28;20028;-78
2023/05/13 14:41:09;;;;;;;2.75;1.27;;;;;;;;;;5092535;28;20036;-78